createdAt,value
2022-12-01T00:01:13.887Z,7.55
2022-12-01T00:03:40.616Z,7.47
2022-12-01T00:06:11.505Z,7.42
2022-12-01T00:08:38.203Z,7.33
2022-12-01T00:11:12.943Z,7.24
2022-12-01T00:13:39.600Z,7.12
2022-12-01T00:16:13.442Z,7.03
2022-12-01T00:18:40.197Z,6.97
2022-12-01T00:21:13.147Z,6.87
2022-12-01T00:23:43.304Z,6.78
2022-12-01T00:26:09.897Z,6.69
2022-12-01T00:28:36.713Z,6.59
2022-12-01T00:31:07.975Z,6.48
2022-12-01T00:33:34.525Z,6.44
2022-12-01T00:36:02.052Z,6.35
2022-12-01T00:38:29.478Z,6.25
2022-12-01T00:40:56.195Z,6.19
2022-12-01T00:43:22.950Z,6.12
2022-12-01T00:45:51.940Z,6.07
2022-12-01T00:48:24.350Z,6.01
2022-12-01T00:50:55.015Z,5.94
2022-12-01T00:53:22.949Z,5.89
2022-12-01T00:55:49.465Z,5.84
2022-12-01T00:58:16.102Z,5.72
2022-12-01T01:00:42.681Z,5.66
2022-12-01T01:03:09.984Z,5.62
2022-12-01T01:05:38.015Z,5.60
2022-12-01T01:08:13.544Z,5.51
2022-12-01T01:10:41.572Z,5.50
2022-12-01T01:13:08.624Z,5.49
2022-12-01T01:15:35.440Z,5.46
2022-12-01T01:18:02.236Z,5.54
2022-12-01T01:20:29.657Z,5.54
2022-12-01T01:22:56.239Z,5.62
2022-12-01T01:25:23.017Z,5.66
2022-12-01T01:27:49.989Z,5.67
2022-12-01T01:30:17.348Z,5.73
2022-12-01T01:32:43.910Z,5.77
2022-12-01T01:35:10.459Z,5.83
2022-12-01T01:37:36.953Z,5.92
2022-12-01T01:40:05.897Z,5.97
2022-12-01T01:42:32.407Z,6.01
2022-12-01T01:44:59.145Z,6.04
2022-12-01T01:47:35.219Z,6.10
2022-12-01T01:50:09.487Z,6.13
2022-12-01T01:52:40.447Z,6.12
2022-12-01T01:55:07.886Z,6.16
2022-12-01T01:57:34.845Z,6.16
2022-12-01T02:00:15.434Z,6.19
2022-12-01T02:02:44.323Z,6.22
2022-12-01T02:05:16.560Z,6.19
2022-12-01T02:07:43.716Z,6.23
2022-12-01T02:10:13.606Z,6.22
2022-12-01T02:13:05.693Z,6.20
2022-12-01T02:16:03.578Z,6.22
2022-12-01T02:18:45.543Z,6.24
2022-12-01T02:21:35.135Z,6.24
2022-12-01T02:24:25.918Z,6.24
2022-12-01T02:27:16.351Z,6.22
2022-12-01T02:30:13.991Z,6.21
2022-12-01T02:32:48.104Z,6.23
2022-12-01T02:35:33.579Z,6.21
2022-12-01T02:38:18.121Z,6.21
2022-12-01T02:41:06.732Z,6.19
2022-12-01T02:43:47.140Z,6.16
2022-12-01T02:46:22.485Z,6.16
2022-12-01T02:48:53.231Z,6.13
2022-12-01T02:51:24.702Z,6.12
2022-12-01T02:53:52.935Z,6.11
2022-12-01T02:56:22.466Z,6.09
2022-12-01T02:58:49.334Z,6.12
2022-12-01T03:01:30.679Z,6.07
2022-12-01T03:04:16.211Z,6.09
2022-12-01T03:07:04.577Z,6.05
2022-12-01T03:10:09.099Z,6.03
2022-12-01T03:12:45.793Z,5.99
2022-12-01T03:15:28.955Z,5.99
2022-12-01T03:18:23.448Z,6.01
2022-12-01T03:21:03.075Z,5.96
2022-12-01T03:23:34.519Z,5.99
2022-12-01T03:26:05.087Z,5.98
2022-12-01T03:28:37.851Z,5.96
2022-12-01T03:31:09.158Z,5.96
2022-12-01T03:33:43.505Z,5.90
2022-12-01T03:36:14.934Z,5.88
2022-12-01T03:38:46.616Z,5.87
2022-12-01T03:41:16.584Z,5.86
2022-12-01T03:43:48.626Z,5.82
2022-12-01T03:46:25.488Z,5.79
2022-12-01T03:48:52.175Z,5.74
2022-12-01T03:51:32.062Z,5.70
2022-12-01T03:54:16.627Z,5.66
2022-12-01T03:56:49.828Z,5.61
2022-12-01T03:59:19.724Z,5.60
2022-12-01T04:01:46.940Z,5.56
2022-12-01T04:04:15.039Z,5.57
2022-12-01T04:06:44.664Z,5.55
2022-12-01T04:09:11.640Z,5.49
2022-12-01T04:11:38.202Z,5.50
2022-12-01T04:14:04.723Z,5.48
2022-12-01T04:16:31.416Z,5.46
2022-12-01T04:18:58.014Z,5.46
2022-12-01T04:21:24.559Z,5.44
2022-12-01T04:23:51.133Z,5.40
2022-12-01T04:26:17.747Z,5.40
2022-12-01T04:28:44.451Z,5.33
2022-12-01T04:31:11.076Z,5.38
2022-12-01T04:33:37.631Z,5.38
2022-12-01T04:36:04.415Z,5.30
2022-12-01T04:38:31.216Z,5.35
2022-12-01T04:40:58.359Z,5.32
2022-12-01T04:43:26.430Z,5.29
2022-12-01T04:45:52.915Z,5.25
2022-12-01T04:48:19.497Z,5.27
2022-12-01T04:50:49.158Z,5.20
2022-12-01T04:53:15.740Z,5.20
2022-12-01T04:55:42.278Z,5.20
2022-12-01T04:58:08.853Z,5.21
2022-12-01T05:00:35.536Z,5.19
2022-12-01T05:03:02.300Z,5.14
2022-12-01T05:05:29.606Z,5.20
2022-12-01T05:07:58.035Z,5.19
2022-12-01T05:10:24.656Z,5.17
2022-12-01T05:12:51.197Z,5.16
2022-12-01T05:15:18.042Z,5.10
2022-12-01T05:17:44.638Z,5.07
2022-12-01T05:20:19.507Z,5.09
2022-12-01T05:23:04.990Z,5.07
2022-12-01T05:25:32.873Z,5.06
2022-12-01T05:27:59.410Z,5.04
2022-12-01T05:30:28.694Z,4.99
2022-12-01T05:32:55.830Z,4.97
2022-12-01T05:35:22.374Z,4.98
2022-12-01T05:37:48.926Z,4.93
2022-12-01T05:40:15.575Z,4.92
2022-12-01T05:42:42.092Z,4.88
2022-12-01T05:45:09.134Z,4.88
2022-12-01T05:47:35.754Z,4.86
2022-12-01T05:50:05.836Z,4.86
2022-12-01T05:52:36.204Z,4.85
2022-12-01T05:55:05.021Z,4.82
2022-12-01T05:57:33.707Z,4.87
2022-12-01T06:00:00.527Z,4.88
2022-12-01T06:02:27.153Z,4.86
2022-12-01T06:04:53.818Z,4.87
2022-12-01T06:07:21.138Z,4.84
2022-12-01T06:09:48.317Z,4.86
2022-12-01T06:12:14.947Z,4.87
2022-12-01T06:14:41.501Z,4.85
2022-12-01T06:17:07.975Z,4.84
2022-12-01T06:19:35.869Z,4.81
2022-12-01T06:22:02.623Z,4.81
2022-12-01T06:24:29.370Z,4.82
2022-12-01T06:26:55.918Z,4.81
2022-12-01T06:29:22.621Z,4.77
2022-12-01T06:31:49.333Z,4.79
2022-12-01T06:34:15.930Z,4.80
2022-12-01T06:36:42.465Z,4.81
2022-12-01T06:39:10.092Z,4.78
2022-12-01T06:41:37.831Z,4.80
2022-12-01T06:44:04.877Z,4.78
2022-12-01T06:46:31.483Z,4.73
2022-12-01T06:48:58.079Z,4.69
2022-12-01T06:51:24.640Z,4.59
2022-12-01T06:53:55.038Z,4.61
2022-12-01T06:56:22.531Z,4.57
2022-12-01T06:58:50.393Z,4.60
2022-12-01T07:01:18.294Z,4.58
2022-12-01T07:03:54.121Z,4.55
2022-12-01T07:06:20.692Z,4.55
2022-12-01T07:08:47.446Z,4.56
2022-12-01T07:11:15.768Z,4.54
2022-12-01T07:13:43.925Z,4.55
2022-12-01T07:16:10.793Z,4.58
2022-12-01T07:18:38.233Z,4.58
2022-12-01T07:21:08.964Z,4.60
2022-12-01T07:23:36.181Z,4.62
2022-12-01T07:26:11.732Z,4.65
2022-12-01T07:28:38.499Z,4.65
2022-12-01T07:31:13.231Z,4.64
2022-12-01T07:33:40.278Z,4.68
2022-12-01T07:36:08.039Z,4.69
2022-12-01T07:38:36.114Z,4.70
2022-12-01T07:41:08.397Z,4.71
2022-12-01T07:43:35.616Z,4.73
2022-12-01T07:46:22.722Z,4.74
2022-12-01T07:48:51.727Z,4.76
2022-12-01T07:51:19.548Z,4.78
2022-12-01T07:53:47.522Z,4.75
2022-12-01T07:56:14.253Z,4.79
2022-12-01T07:58:41.429Z,4.81
2022-12-01T08:01:09.135Z,4.83
2022-12-01T08:03:36.561Z,4.85
2022-12-01T08:06:04.393Z,4.87
2022-12-01T08:08:33.036Z,4.89
2022-12-01T08:11:01.775Z,4.90
2022-12-01T08:13:28.789Z,4.91
2022-12-01T08:15:55.931Z,4.93
2022-12-01T08:18:23.198Z,4.96
2022-12-01T08:20:57.117Z,4.99
2022-12-01T08:23:23.730Z,4.98
2022-12-01T08:25:50.287Z,5.05
2022-12-01T08:28:16.908Z,5.03
2022-12-01T08:30:43.619Z,5.04
2022-12-01T08:33:10.229Z,5.05
2022-12-01T08:35:36.868Z,5.09
2022-12-01T08:38:04.066Z,5.13
2022-12-01T08:40:30.971Z,5.12
2022-12-01T08:42:57.601Z,5.16
2022-12-01T08:45:24.337Z,5.16
2022-12-01T08:47:50.830Z,5.20
2022-12-01T08:50:17.410Z,5.26
2022-12-01T08:52:44.152Z,5.27
2022-12-01T08:55:10.904Z,5.33
2022-12-01T08:57:37.694Z,5.37
2022-12-01T09:00:04.898Z,5.41
2022-12-01T09:02:31.551Z,5.49
2022-12-01T09:04:58.297Z,5.49
2022-12-01T09:07:26.822Z,5.55
2022-12-01T09:09:53.585Z,5.61
2022-12-01T09:12:20.086Z,5.63
2022-12-01T09:14:46.799Z,5.71
2022-12-01T09:17:14.023Z,5.72
2022-12-01T09:19:40.620Z,5.74
2022-12-01T09:22:07.260Z,5.83
2022-12-01T09:24:33.864Z,5.87
2022-12-01T09:27:00.984Z,5.90
2022-12-01T09:29:27.447Z,5.86
2022-12-01T09:31:58.241Z,5.96
2022-12-01T09:34:25.231Z,5.99
2022-12-01T09:36:55.656Z,6.01
2022-12-01T09:39:22.214Z,6.00
2022-12-01T09:42:11.287Z,6.10
2022-12-01T09:44:49.355Z,6.12
2022-12-01T09:47:25.330Z,6.16
2022-12-01T09:50:10.169Z,6.22
2022-12-01T09:52:45.095Z,6.23
2022-12-01T09:55:13.593Z,6.32
2022-12-01T09:57:42.349Z,6.30
2022-12-01T10:00:21.775Z,6.34
2022-12-01T10:03:21.948Z,6.40
2022-12-01T10:06:25.348Z,6.44
2022-12-01T10:08:48.700Z,6.50
2022-12-01T10:11:34.408Z,6.50
2022-12-01T10:14:01.858Z,6.63
2022-12-01T10:16:43.072Z,6.66
2022-12-01T10:19:22.992Z,6.74
2022-12-01T10:22:08.615Z,6.79
2022-12-01T10:24:52.834Z,6.83
2022-12-01T10:27:22.468Z,6.87
2022-12-01T10:29:58.067Z,6.83
2022-12-01T10:32:50.073Z,6.90
2022-12-01T10:35:17.651Z,6.99
2022-12-01T10:37:46.204Z,7.02
2022-12-01T10:40:17.081Z,7.01
2022-12-01T10:42:46.175Z,7.10
2022-12-01T10:45:27.645Z,7.13
2022-12-01T10:48:16.109Z,7.18
2022-12-01T10:50:48.029Z,7.22
2022-12-01T10:53:32.868Z,7.22
2022-12-01T10:56:15.137Z,7.34
2022-12-01T10:58:55.702Z,7.51
2022-12-01T11:01:27.633Z,7.65
2022-12-01T11:04:06.991Z,7.74
2022-12-01T11:06:34.892Z,7.86
2022-12-01T11:09:05.111Z,7.95
2022-12-01T11:11:38.057Z,8.02
2022-12-01T11:14:17.421Z,8.06
2022-12-01T11:16:46.647Z,8.11
2022-12-01T11:19:28.478Z,8.13
2022-12-01T11:21:56.749Z,8.15
2022-12-01T11:24:33.252Z,8.14
2022-12-01T11:27:00.705Z,8.13
2022-12-01T11:29:32.608Z,8.16
2022-12-01T11:32:00.713Z,8.16
2022-12-01T11:34:31.308Z,8.17
2022-12-01T11:37:01.487Z,8.16
2022-12-01T11:39:43.773Z,8.19
2022-12-01T11:42:28.273Z,8.20
2022-12-01T11:45:05.420Z,8.35
2022-12-01T11:47:31.973Z,8.39
2022-12-01T11:50:01.441Z,8.44
2022-12-01T11:52:34.115Z,8.47
2022-12-01T11:55:12.218Z,8.56
2022-12-01T11:57:44.899Z,8.54
2022-12-01T12:00:16.914Z,8.55
2022-12-01T12:02:46.691Z,8.55
2022-12-01T12:05:30.278Z,8.55
2022-12-01T12:08:07.516Z,8.53
2022-12-01T12:10:56.185Z,8.59
2022-12-01T12:13:44.762Z,8.62
2022-12-01T12:16:37.340Z,8.61
2022-12-01T12:19:14.738Z,8.58
2022-12-01T12:22:11.205Z,8.50
2022-12-01T12:25:18.875Z,8.51
2022-12-01T12:27:53.812Z,8.51
2022-12-01T12:30:28.830Z,8.46
2022-12-01T12:33:05.150Z,8.56
2022-12-01T12:35:47.455Z,8.60
2022-12-01T12:38:20.164Z,8.64
2022-12-01T12:40:46.810Z,8.67
2022-12-01T12:43:48.314Z,8.61
2022-12-01T12:46:31.230Z,8.60
2022-12-01T12:49:21.480Z,8.56
2022-12-01T12:52:02.596Z,8.54
2022-12-01T12:54:41.868Z,8.53
2022-12-01T12:57:27.128Z,8.50
2022-12-01T13:00:28.939Z,8.43
2022-12-01T13:03:14.135Z,8.35
2022-12-01T13:05:47.084Z,8.30
2022-12-01T13:08:19.356Z,8.21
2022-12-01T13:11:08.438Z,8.19
2022-12-01T13:13:53.369Z,8.14
2022-12-01T13:16:26.113Z,8.05
2022-12-01T13:19:03.039Z,8.07
2022-12-01T13:21:36.595Z,8.02
2022-12-01T13:24:04.822Z,7.96
2022-12-01T13:26:34.605Z,7.80
2022-12-01T13:29:06.113Z,7.70
2022-12-01T13:31:43.935Z,7.72
2022-12-01T13:34:19.187Z,7.68
2022-12-01T13:36:53.769Z,7.72
2022-12-01T13:39:29.152Z,7.64
2022-12-01T13:42:09.309Z,7.69
2022-12-01T13:44:42.553Z,7.66
2022-12-01T13:47:11.775Z,7.63
2022-12-01T13:49:50.256Z,7.58
2022-12-01T13:52:23.114Z,7.56
2022-12-01T13:55:08.101Z,7.55
2022-12-01T13:57:37.980Z,7.52
2022-12-01T14:00:04.577Z,7.48
2022-12-01T14:02:39.052Z,7.43
2022-12-01T14:05:24.349Z,7.39
2022-12-01T14:07:52.533Z,7.28
2022-12-01T14:10:19.379Z,7.34
2022-12-01T14:12:46.698Z,7.25
2022-12-01T14:15:33.736Z,7.30
2022-12-01T14:18:06.190Z,7.30
2022-12-01T14:20:43.184Z,7.24
2022-12-01T14:23:27.064Z,7.19
2022-12-01T14:25:59.113Z,7.13
2022-12-01T14:28:59.841Z,7.17
2022-12-01T14:31:32.617Z,7.14
2022-12-01T14:34:02.280Z,7.08
2022-12-01T14:36:53.768Z,7.11
2022-12-01T14:39:25.912Z,7.10
2022-12-01T14:41:57.080Z,7.08
2022-12-01T14:44:32.780Z,7.07
2022-12-01T14:47:13.390Z,7.06
2022-12-01T14:49:47.237Z,7.11
2022-12-01T14:52:38.133Z,7.10
2022-12-01T14:55:13.082Z,7.05
2022-12-01T14:57:44.144Z,7.01
2022-12-01T15:00:20.165Z,7.06
2022-12-01T15:02:56.042Z,7.02
2022-12-01T15:05:28.558Z,7.01
2022-12-01T15:08:18.577Z,7.02
2022-12-01T15:10:59.814Z,7.01
2022-12-01T15:13:29.164Z,6.97
2022-12-01T15:15:59.865Z,6.91
2022-12-01T15:18:32.322Z,6.87
2022-12-01T15:21:11.110Z,6.86
2022-12-01T15:23:52.065Z,6.79
2022-12-01T15:26:23.485Z,6.85
2022-12-01T15:28:51.192Z,6.82
2022-12-01T15:31:18.043Z,6.84
2022-12-01T15:33:51.989Z,6.77
2022-12-01T15:36:19.756Z,6.71
2022-12-01T15:38:48.094Z,6.73
2022-12-01T15:41:30.032Z,6.73
2022-12-01T15:43:59.363Z,6.67
2022-12-01T15:46:34.089Z,6.72
2022-12-01T15:49:19.353Z,6.71
2022-12-01T15:51:48.901Z,6.71
2022-12-01T15:54:25.562Z,6.71
2022-12-01T15:56:57.564Z,6.64
2022-12-01T15:59:28.829Z,6.68
2022-12-01T16:01:56.233Z,6.70
2022-12-01T16:04:32.271Z,6.68
2022-12-01T16:07:06.952Z,6.68
2022-12-01T16:09:57.603Z,6.67
2022-12-01T16:12:29.852Z,6.64
2022-12-01T16:15:00.584Z,6.64
2022-12-01T16:17:48.824Z,6.60
2022-12-01T16:20:24.417Z,6.60
2022-12-01T16:22:57.099Z,6.57
2022-12-01T16:25:41.487Z,6.48
2022-12-01T16:28:22.526Z,6.50
2022-12-01T16:30:49.951Z,6.49
2022-12-01T16:33:19.957Z,6.43
2022-12-01T16:35:46.498Z,6.39
2022-12-01T16:38:21.933Z,6.45
2022-12-01T16:41:16.040Z,6.43
2022-12-01T16:43:59.173Z,6.42
2022-12-01T16:46:29.654Z,6.39
2022-12-01T16:48:56.303Z,6.39
2022-12-01T16:51:29.903Z,6.35
2022-12-01T16:54:10.246Z,6.32
2022-12-01T16:56:36.782Z,6.28
2022-12-01T16:59:03.402Z,6.26
2022-12-01T17:01:30.113Z,6.28
2022-12-01T17:03:56.987Z,6.24
2022-12-01T17:06:24.292Z,6.30
2022-12-01T17:08:51.742Z,6.26
2022-12-01T17:11:18.426Z,6.26
2022-12-01T17:13:45.372Z,6.15
2022-12-01T17:16:17.977Z,6.26
2022-12-01T17:18:45.428Z,6.21
2022-12-01T17:21:12.123Z,6.20
2022-12-01T17:23:39.324Z,6.19
2022-12-01T17:26:11.828Z,6.13
2022-12-01T17:28:39.151Z,6.12
2022-12-01T17:31:07.209Z,6.12
2022-12-01T17:33:35.212Z,6.11
2022-12-01T17:36:04.506Z,6.10
2022-12-01T17:38:34.743Z,6.14
2022-12-01T17:41:03.955Z,6.14
2022-12-01T17:43:30.620Z,6.15
2022-12-01T17:45:57.624Z,6.12
2022-12-01T17:48:24.382Z,6.15
2022-12-01T17:50:51.011Z,6.14
2022-12-01T17:53:17.716Z,6.11
2022-12-01T17:55:44.709Z,6.10
2022-12-01T17:58:11.428Z,6.11
2022-12-01T18:00:38.113Z,6.11
2022-12-01T18:03:04.868Z,6.07
2022-12-01T18:05:31.639Z,6.10
2022-12-01T18:07:58.753Z,6.10
2022-12-01T18:10:25.500Z,6.09
2022-12-01T18:12:52.037Z,6.07
2022-12-01T18:15:18.693Z,6.05
2022-12-01T18:17:45.202Z,6.06
2022-12-01T18:20:12.029Z,6.08
2022-12-01T18:22:38.628Z,6.02
2022-12-01T18:25:05.888Z,6.06
2022-12-01T18:27:32.513Z,6.09
2022-12-01T18:29:59.137Z,5.97
2022-12-01T18:32:25.940Z,6.02
2022-12-01T18:34:53.002Z,6.05
2022-12-01T18:37:19.879Z,6.04
2022-12-01T18:39:46.455Z,6.01
2022-12-01T18:42:13.251Z,6.04
2022-12-01T18:44:39.804Z,6.01
2022-12-01T18:47:06.454Z,6.00
2022-12-01T18:49:33.141Z,5.98
2022-12-01T18:51:59.917Z,5.98
2022-12-01T18:54:26.852Z,5.94
2022-12-01T18:56:53.706Z,5.95
2022-12-01T18:59:20.333Z,5.95
2022-12-01T19:01:47.123Z,5.88
2022-12-01T19:04:14.965Z,5.89
2022-12-01T19:06:42.663Z,5.91
2022-12-01T19:09:11.474Z,5.91
2022-12-01T19:11:39.297Z,5.92
2022-12-01T19:14:11.942Z,5.89
2022-12-01T19:16:39.437Z,5.88
2022-12-01T19:19:06.056Z,5.89
2022-12-01T19:21:32.715Z,5.91
2022-12-01T19:23:59.412Z,5.91
2022-12-01T19:26:26.042Z,5.91
2022-12-01T19:28:52.979Z,5.89
2022-12-01T19:31:24.162Z,5.88
2022-12-01T19:33:55.624Z,5.87
2022-12-01T19:36:27.486Z,5.87
2022-12-01T19:38:57.460Z,5.86
2022-12-01T19:41:25.556Z,5.85
2022-12-01T19:43:53.378Z,5.83
2022-12-01T19:46:22.829Z,5.77
2022-12-01T19:48:55.232Z,5.78
2022-12-01T19:51:35.744Z,5.82
2022-12-01T19:54:07.151Z,5.84
2022-12-01T19:56:34.366Z,5.86
2022-12-01T19:59:02.011Z,5.84
2022-12-01T20:01:31.853Z,5.83
2022-12-01T20:03:58.496Z,5.80
2022-12-01T20:06:30.766Z,5.77
2022-12-01T20:08:59.526Z,5.79
2022-12-01T20:11:28.511Z,5.83
2022-12-01T20:13:55.671Z,5.78
2022-12-01T20:16:24.311Z,5.78
2022-12-01T20:18:51.740Z,5.79
2022-12-01T20:21:21.902Z,5.79
2022-12-01T20:23:51.890Z,5.69
2022-12-01T20:26:20.023Z,5.73
2022-12-01T20:28:49.196Z,5.78
2022-12-01T20:31:21.901Z,5.75
2022-12-01T20:33:49.384Z,5.75
2022-12-01T20:36:16.142Z,5.71
2022-12-01T20:38:42.825Z,5.71
2022-12-01T20:41:10.887Z,5.69
2022-12-01T20:43:37.718Z,5.66
2022-12-01T20:46:04.995Z,5.63
2022-12-01T20:48:32.451Z,5.60
2022-12-01T20:51:03.819Z,5.64
2022-12-01T20:53:30.722Z,5.64
2022-12-01T20:55:57.326Z,5.59
2022-12-01T20:58:24.125Z,5.61
2022-12-01T21:00:50.763Z,5.61
2022-12-01T21:03:17.532Z,5.60
2022-12-01T21:05:44.459Z,5.59
2022-12-01T21:08:13.276Z,5.54
2022-12-01T21:10:45.276Z,5.61
2022-12-01T21:13:21.835Z,5.56
2022-12-01T21:15:55.456Z,5.59
2022-12-01T21:18:29.758Z,5.58
2022-12-01T21:21:04.742Z,5.55
2022-12-01T21:23:31.343Z,5.55
2022-12-01T21:25:57.844Z,5.55
2022-12-01T21:28:26.652Z,5.57
2022-12-01T21:31:07.667Z,5.55
2022-12-01T21:33:35.767Z,5.53
2022-12-01T21:36:15.656Z,5.48
2022-12-01T21:38:43.663Z,5.48
2022-12-01T21:41:27.101Z,5.43
2022-12-01T21:44:07.724Z,5.48
2022-12-01T21:46:37.308Z,5.46
2022-12-01T21:49:17.469Z,5.43
2022-12-01T21:51:45.075Z,5.42
2022-12-01T21:54:22.883Z,5.44
2022-12-01T21:56:52.172Z,5.42
2022-12-01T21:59:23.571Z,5.45
2022-12-01T22:02:01.218Z,5.42
2022-12-01T22:04:31.506Z,5.45
2022-12-01T22:06:58.370Z,5.47
2022-12-01T22:09:29.373Z,5.49
2022-12-01T22:11:59.584Z,5.50
2022-12-01T22:14:34.389Z,5.52
2022-12-01T22:17:07.165Z,5.54
2022-12-01T22:19:37.621Z,5.51
2022-12-01T22:22:13.439Z,5.55
2022-12-01T22:24:48.961Z,5.54
2022-12-01T22:27:38.540Z,5.53
2022-12-01T22:30:08.160Z,5.53
2022-12-01T22:32:37.569Z,5.52
2022-12-01T22:35:16.267Z,5.50
2022-12-01T22:37:48.574Z,5.49
2022-12-01T22:40:49.219Z,5.48
2022-12-01T22:43:15.698Z,5.48
2022-12-01T22:45:43.663Z,5.42
2022-12-01T22:48:34.067Z,5.44
2022-12-01T22:51:16.802Z,5.40
2022-12-01T22:53:46.016Z,5.41
2022-12-01T22:56:42.334Z,5.40
2022-12-01T22:59:19.355Z,5.35
2022-12-01T23:01:53.846Z,5.38
2022-12-01T23:04:33.136Z,5.37
2022-12-01T23:07:10.255Z,5.41
2022-12-01T23:09:42.318Z,5.41
2022-12-01T23:12:11.869Z,5.41
2022-12-01T23:14:54.187Z,5.40
2022-12-01T23:17:29.378Z,5.39
2022-12-01T23:20:25.278Z,5.37
2022-12-01T23:22:56.677Z,5.36
2022-12-01T23:25:24.962Z,5.34
2022-12-01T23:27:52.801Z,5.25
2022-12-01T23:30:20.837Z,5.32
2022-12-01T23:33:03.930Z,5.29
2022-12-01T23:35:32.468Z,5.24
2022-12-01T23:37:58.996Z,5.21
2022-12-01T23:40:34.863Z,5.25
2022-12-01T23:43:23.000Z,5.24
2022-12-01T23:45:52.836Z,5.23
2022-12-01T23:48:23.160Z,5.24
2022-12-01T23:50:52.792Z,5.20
2022-12-01T23:53:32.450Z,5.21
2022-12-01T23:56:09.135Z,5.21
2022-12-01T23:58:35.764Z,5.21
